Latest Weather Observations for Cessnock Airport

IDN60801

Issued at 10:32 pm EST Friday 22 May 2015 (issued every 30 minutes, with the page automatically refreshed every 10 minutes)

About weather observations | Map of weather stations | Latest weather observations for NSW | Other Formats
Station Details ID: 061260 Name: CESSNOCK AIRPORT AWS Lat: -32.79 Lon: 151.34 Height: 61.0 m
Data from the previous 72 hours. | See also: Recent months at Cessnock Airport
Date/Time
EST
Temp
°C
App
Temp
°C
Dew
Point
Rel
Hum
%
Delta-T
°C
Wind Press
QNH
hPa
Press
MSL
hPa
Rain
since 9 am
mm
Dir
 
Spd
km/h
Gust
km/h
Spd
kts
Gust
kts
22/10:30pm 12.8 10.3 9.8 82 1.5 SW 13 17 7 9 1025.2 1025.2 18.4
22/10:00pm 13.2 10.8 10.0 81 1.6 SSW 13 20 7 11 1025.1 1025.1 18.4
22/09:30pm 12.7 10.2 9.7 82 1.5 SSW 13 19 7 10 1024.7 1024.6 18.4
22/09:00pm 13.3 9.6 10.1 81 1.6 SSW 20 30 11 16 1024.4 1024.3 18.4
22/08:30pm 13.5 9.0 9.9 79 1.9 SSW 24 35 13 19 1024.0 1023.9 18.4
22/08:00pm 13.4 9.2 9.6 78 1.9 SSW 22 32 12 17 1023.7 1023.6 18.4
22/07:30pm 13.4 9.7 9.6 78 1.9 SSW 19 24 10 13 1023.4 1023.3 18.4
22/07:00pm 13.9 10.1 9.7 76 2.2 SSW 20 33 11 18 1022.9 1022.8 18.4
22/06:30pm 14.3 10.6 9.5 73 2.5 SW 19 28 10 15 1022.2 1022.2 18.4
22/06:00pm 14.6 10.2 9.0 69 2.8 S 22 35 12 19 1021.6 1021.6 18.2
22/05:30pm 14.6 10.9 9.6 72 2.6 SSW 19 30 10 16 1021.2 1021.2 18.2
22/05:00pm 14.5 10.7 9.7 73 2.5 SSW 20 32 11 17 1020.6 1020.6 18.2
22/04:30pm 14.9 10.7 9.9 72 2.6 SSW 22 35 12 19 1020.0 1020.0 18.2
22/04:00pm 15.1 11.1 10.5 74 2.4 SSW 22 33 12 18 1019.2 1019.2 18.2
22/03:30pm 14.9 10.1 10.3 74 2.4 SSW 26 39 14 21 1018.6 1018.6 18.2
22/03:00pm 14.7 9.0 11.1 79 1.9 SSW 32 48 17 26 1018.2 1018.2 18.2
22/02:52pm 14.7 9.6 10.7 77 2.1 SSW 28 46 15 25 1018.1 1018.1 18.2
22/02:30pm 14.4 10.7 11.4 82 1.6 SSW 22 35 12 19 1017.8 1017.8 18.2
22/02:00pm 13.6 10.0 11.8 89 1.0 SSW 22 43 12 23 1017.8 1017.8 18.2
22/01:30pm 13.5 10.5 12.4 93 0.6 SSW 20 33 11 18 1017.4 1017.4 17.2
22/01:00pm 13.5 11.4 12.4 93 0.6 SSW 15 24 8 13 1017.1 1017.1 14.2
22/12:30pm 13.6 11.9 12.5 93 0.6 SW 13 22 7 12 1016.9 1016.9 12.0
22/12:00pm 13.3 10.4 12.2 93 0.6 SW 19 32 10 17 1016.9 1016.9 10.6
22/11:30am 13.3 10.8 12.2 93 0.6 SW 17 26 9 14 1016.7 1016.7 8.4
22/11:00am 13.4 11.2 12.1 92 0.7 SSW 15 22 8 12 1016.8 1016.8 4.4
22/10:30am 13.8 11.0 11.5 86 1.2 SW 17 28 9 15 1016.7 1016.7 1.0
22/10:00am 15.3 12.6 10.5 73 2.5 SW 15 24 8 13 1016.5 1016.5 0.0
22/09:30am 15.4 10.9 10.2 71 2.7 SW 24 37 13 20 1016.4 1016.4 0.0
22/09:00am 15.3 11.5 9.9 70 2.8 SW 20 32 11 17 1016.0 1016.0 0.2
22/08:30am 14.8 11.5 9.6 71 2.7 SW 17 26 9 14 1015.8 1015.8 0.2
22/08:00am 14.5 12.3 9.5 72 2.6 SW 11 17 6 9 1015.5 1015.5 0.2
22/07:30am 14.5 10.8 9.5 72 2.6 SW 19 33 10 18 1015.3 1015.3 0.2
22/07:00am 14.2 11.6 9.2 72 2.6 SW 13 20 7 11 1015.1 1015.1 0.2
22/06:30am 14.1 10.7 9.3 73 2.5 SW 17 26 9 14 1015.1 1015.1 0.2
22/06:00am 13.9 10.9 9.1 73 2.4 SW 15 24 8 13 1014.9 1014.9 0.2
22/05:30am 13.6 10.9 9.1 74 2.3 SW 13 20 7 11 1014.7 1014.7 0.2
22/05:00am 13.9 11.2 9.1 73 2.4 SW 13 20 7 11 1014.7 1014.7 0.2
22/04:30am 13.7 11.9 9.6 76 2.1 SW 9 15 5 8 1014.9 1014.9 0.2
22/04:00am 13.1 11.3 9.5 79 1.8 WSW 9 13 5 7 1015.0 1015.0 0.2
22/03:30am 13.1 11.4 9.7 80 1.7 SW 9 15 5 8 1015.0 1015.0 0.2
22/03:00am 12.5 11.8 9.9 84 1.3 SW 4 7 2 4 1015.4 1015.4 0.2
22/02:30am 13.3 12.2 10.5 83 1.5 SW 7 9 4 5 1015.4 1015.4 0.2
22/02:00am 13.3 11.5 10.7 84 1.4 SW 11 17 6 9 1015.7 1015.7 0.2
22/01:30am 12.9 13.5 11.8 93 0.6 CALM 0 2 0 1 1016.2 1016.2 0.2
22/01:00am 13.6 12.7 12.5 93 0.6 NW 9 13 5 7 1016.5 1016.5 0.2
22/12:30am 13.8 12.6 12.7 93 0.6 N 11 17 6 9 1016.6 1016.6 0.2
22/12:00am 13.7 12.8 12.6 93 0.6 NW 9 13 5 7 1016.6 1016.6 0.2
 
Date/Time
EST
Temp
°C
App
Temp
°C
Dew
Point
Rel
Hum
%
Delta-T
°C
Wind Press
QNH
hPa
Press
MSL
hPa
Rain
since 9 am
mm
Dir
 
Spd
km/h
Gust
km/h
Spd
kts
Gust
kts
21/11:30pm 12.6 11.5 11.8 95 0.4 N 9 13 5 7 1016.9 1016.9 0.2
21/11:00pm 13.2 13.3 11.6 90 0.9 WNW 2 6 1 3 1016.6 1016.6 0.2
21/10:30pm 14.3 13.5 11.8 85 1.3 WSW 7 11 4 6 1016.6 1016.6 0.2
21/10:00pm 13.8 13.1 12.0 89 1.0 SW 7 11 4 6 1016.7 1016.7 0.2
21/09:30pm 12.7 13.4 12.1 96 0.3 CALM 0 0 0 0 1016.9 1016.9 0.2
21/09:00pm 12.3 12.0 11.4 94 0.5 WSW 4 7 2 4 1017.0 1017.0 0.2
21/08:30pm 12.6 13.2 11.8 95 0.4 CALM 0 0 0 0 1016.7 1016.7 0.2
21/08:00pm 13.0 13.7 12.1 94 0.5 CALM 0 0 0 0 1016.7 1016.7 0.2
21/07:30pm 13.3 13.2 12.0 92 0.7 SSW 4 6 2 3 1016.8 1016.8 0.2
21/07:00pm 13.6 13.2 12.3 92 0.7 WSW 6 7 3 4 1016.8 1016.8 0.2
21/06:30pm 13.0 12.4 11.6 91 0.7 WSW 6 9 3 5 1016.8 1016.8 0.2
21/06:00pm 13.5 12.9 11.7 89 1.0 S 6 7 3 4 1016.3 1016.3 0.2
21/05:30pm 15.0 13.8 11.6 80 1.8 SE 9 11 5 6 1016.1 1016.1 0.2
21/05:00pm 16.2 14.8 12.2 77 2.2 SE 11 17 6 9 1015.8 1015.8 0.2
21/04:30pm 17.6 18.3 12.3 71 2.9 CALM 0 0 0 0 1015.8 1015.8 0.2
21/04:00pm 18.6 18.4 11.7 64 3.8 SW 4 7 2 4 1015.9 1015.9 0.2
21/03:30pm 17.7 17.0 11.5 67 3.4 N 6 11 3 6 1016.1 1016.1 0.2
21/03:00pm 16.8 15.6 12.9 78 2.2 NNW 11 13 6 7 1016.2 1016.2 0.2
21/02:30pm 18.6 17.0 11.4 63 3.9 WNW 11 15 6 8 1016.1 1016.1 0.0
21/02:00pm 19.6 18.1 13.1 66 3.7 NW 13 19 7 10 1016.0 1016.0 0.0
21/01:30pm 19.7 19.3 12.5 63 4.0 NNW 6 9 3 5 1016.1 1016.1 0.0
21/01:00pm 20.1 19.6 12.6 62 4.2 W 7 17 4 9 1016.4 1016.4 0.0
21/12:30pm 20.2 18.6 10.3 53 5.4 WNW 9 15 5 8 1016.9 1016.9 0.0
21/12:00pm 19.5 18.9 12.3 63 4.0 NW 7 15 4 8 1017.6 1017.6 0.0
21/11:30am 19.1 18.5 13.5 70 3.2 NNW 9 15 5 8 1017.9 1017.9 0.0
21/11:00am 18.1 16.2 13.0 72 2.9 NW 15 19 8 10 1018.4 1018.4 0.0
21/10:30am 18.2 16.2 12.6 70 3.1 NW 15 20 8 11 1018.6 1018.6 0.0
21/10:00am 18.5 17.4 13.1 71 3.0 NNW 11 17 6 9 1018.7 1018.7 0.0
21/09:30am 17.7 16.5 12.8 73 2.7 NW 11 17 6 9 1018.8 1018.8 0.0
21/09:00am 16.7 16.2 13.8 83 1.6 NNW 9 15 5 8 1018.9 1018.9 2.8
21/08:30am 15.0 14.2 12.9 87 1.2 N 9 15 5 8 1018.5 1018.5 2.8
21/08:00am 15.1 14.7 13.1 88 1.1 N 7 11 4 6 1018.3 1018.3 2.8
21/07:30am 14.0 13.5 12.6 91 0.8 NNW 7 9 4 5 1018.2 1018.2 2.8
21/07:00am 13.7 13.1 12.4 92 0.7 N 7 13 4 7 1017.6 1017.6 2.8
21/06:30am 13.6 13.2 12.5 93 0.6 NNE 6 9 3 5 1017.2 1017.2 2.8
21/06:00am 13.8 13.3 12.2 90 0.9 ESE 6 7 3 4 1016.6 1016.6 2.8
21/05:30am 15.2 14.8 12.3 83 1.6 NW 6 11 3 6 1016.9 1016.9 2.8
21/05:00am 15.6 14.3 12.5 82 1.7 NNW 11 15 6 8 1017.1 1017.1 2.8
21/04:30am 14.4 14.1 12.8 90 0.9 NNE 6 7 3 4 1016.5 1016.5 2.8
21/04:00am 14.4 13.8 12.4 88 1.1 NE 7 9 4 5 1016.2 1016.2 2.8
21/03:30am 15.3 15.3 12.4 83 1.6 NW 4 11 2 6 1016.2 1016.2 2.8
21/03:00am 15.2 13.9 12.5 84 1.5 NW 11 19 6 10 1016.8 1016.8 2.8
21/02:30am 15.2 13.9 13.6 90 0.9 NW 13 20 7 11 1017.1 1017.1 2.8
21/02:00am 15.1 13.8 13.8 92 0.7 NNW 13 22 7 12 1017.6 1017.6 2.8
21/01:30am 15.3 15.3 14.3 94 0.6 NNW 7 13 4 7 1017.2 1017.2 2.8
21/01:00am 15.3 15.7 14.7 96 0.3 N 6 9 3 5 1017.6 1017.6 2.8
21/12:30am 15.2 15.2 14.2 94 0.6 NNW 7 11 4 6 1017.6 1017.6 2.6
21/12:00am 15.3 15.1 14.7 96 0.3 N 9 13 5 7 1017.7 1017.7 2.6
 
Date/Time
EST
Temp
°C
App
Temp
°C
Dew
Point
Rel
Hum
%
Delta-T
°C
Wind Press
QNH
hPa
Press
MSL
hPa
Rain
since 9 am
mm
Dir
 
Spd
km/h
Gust
km/h
Spd
kts
Gust
kts
20/11:30pm 15.5 16.3 14.7 95 0.5 NW 4 7 2 4 1017.8 1017.8 2.2
20/11:00pm 15.8 16.2 14.8 94 0.6 NW 6 7 3 4 1018.0 1018.0 1.8
20/10:30pm 16.4 15.4 14.6 89 1.0 WNW 13 20 7 11 1018.1 1018.1 1.2
20/10:00pm 17.6 15.2 13.7 78 2.2 NW 19 28 10 15 1017.8 1017.8 0.2
20/09:30pm 18.2 15.7 13.5 74 2.7 NW 19 28 10 15 1017.3 1017.3 0.2
20/09:00pm 18.3 16.2 13.6 74 2.7 NW 17 28 9 15 1016.6 1016.6 0.2
20/08:30pm 18.3 15.9 13.8 75 2.6 NW 19 26 10 14 1016.4 1016.4 0.2
20/08:00pm 18.4 16.5 14.1 76 2.5 NNW 17 24 9 13 1016.0 1016.0 0.2
20/07:30pm 18.9 17.2 14.6 76 2.5 NW 17 26 9 14 1015.8 1015.8 0.2
20/07:00pm 19.2 17.7 15.3 78 2.3 NNW 17 24 9 13 1015.4 1015.4 0.2
20/06:30pm 19.0 19.3 16.0 83 1.8 N 9 13 5 7 1015.1 1015.1 0.2
20/06:00pm 19.2 19.8 15.9 81 2.0 NNW 7 9 4 5 1014.9 1014.9 0.2
20/05:30pm 20.0 20.7 16.0 78 2.4 NNW 7 11 4 6 1014.8 1014.8 0.2
20/05:00pm 20.2 20.5 16.0 77 2.5 NW 9 15 5 8 1014.4 1014.4 0.2
20/04:30pm 20.6 21.0 16.4 77 2.5 NW 9 15 5 8 1014.4 1014.4 0.2
20/04:00pm 21.1 20.7 16.1 73 3.0 NW 13 22 7 12 1014.1 1014.1 0.2
20/03:30pm 21.9 21.1 16.2 70 3.5 NNW 15 22 8 12 1013.8 1013.8 0.2
20/03:00pm 21.6 21.1 15.9 70 3.4 NW 13 24 7 13 1014.0 1014.0 0.2
20/02:30pm 22.1 21.5 15.7 67 3.8 NW 13 20 7 11 1014.0 1014.0 0.2
20/02:00pm 22.0 20.2 15.6 67 3.8 NW 19 24 10 13 1014.1 1014.1 0.2
20/01:30pm 21.3 19.4 15.2 68 3.6 NW 19 32 10 17 1014.2 1014.2 0.2
20/01:00pm 21.6 20.0 15.9 70 3.4 NW 19 28 10 15 1014.5 1014.5 0.2
20/12:30pm 20.2 18.0 15.0 72 3.1 NNW 20 30 11 16 1014.8 1014.8 0.2
20/12:00pm 20.5 19.0 15.3 72 3.1 NW 17 24 9 13 1015.3 1015.3 0.2
20/11:30am 19.5 17.8 15.8 79 2.2 NW 19 32 10 17 1015.8 1015.8 0.2
20/11:00am 17.9 16.4 15.2 84 1.6 NW 17 26 9 14 1016.3 1016.3 0.2
20/10:30am 17.0 15.3 14.8 87 1.3 NW 17 30 9 16 1016.8 1016.8 0.2
20/10:00am 16.6 14.9 14.8 89 1.0 NNW 17 28 9 15 1017.1 1017.1 0.2
20/09:30am 16.1 14.1 15.0 93 0.6 NNW 19 26 10 14 1017.2 1017.2 0.2
20/09:00am 15.7 14.0 14.6 93 0.6 NNW 17 28 9 15 1017.3 1017.3 0.8
20/08:30am 15.8 13.9 14.3 91 0.9 NNW 17 26 9 14 1017.3 1017.3 0.8
20/08:00am 15.9 14.0 14.3 90 0.9 NW 17 26 9 14 1017.3 1017.3 0.6
20/07:30am 16.8 16.4 14.1 84 1.5 NNW 9 17 5 9 1016.5 1016.5 0.2
20/07:00am 16.1 15.6 13.8 86 1.3 NNW 9 15 5 8 1016.1 1016.1 0.2
20/06:30am 16.4 15.8 13.5 83 1.6 NW 9 15 5 8 1015.5 1015.5 0.2
20/06:00am 16.7 15.4 13.6 82 1.7 NW 13 17 7 9 1016.0 1016.0 0.2
20/05:30am 17.1 15.8 13.6 80 2.0 WNW 13 20 7 11 1015.4 1015.4 0.2
20/05:00am 16.4 15.9 13.9 85 1.4 NW 9 20 5 11 1015.0 1015.0 0.2
20/04:30am 15.9 15.5 14.1 89 1.0 NNW 9 19 5 10 1014.9 1014.9 0.2
20/04:00am 15.7 14.2 14.2 91 0.9 NW 15 24 8 13 1014.7 1014.7 0.2
20/03:30am 15.4 14.6 14.1 92 0.7 NNW 11 17 6 9 1014.7 1014.7 0.2
20/03:00am 15.3 13.7 13.8 91 0.8 NNW 15 28 8 15 1014.6 1014.6 0.2
20/02:30am 15.3 14.5 14.0 92 0.7 NW 11 17 6 9 1014.7 1014.7 0.2
20/02:00am 14.9 13.7 13.9 94 0.6 NNW 13 19 7 10 1014.8 1014.8 0.2
20/01:30am 13.9 13.0 13.7 99 0.1 N 11 15 6 8 1015.3 1015.3 0.2
20/01:00am 11.7 11.4 11.5 99 0.1 S 4 7 2 4 1015.6 1015.6 0.2
20/12:30am 11.8 11.9 11.5 98 0.2 W 2 7 1 4 1015.8 1015.8 0.2
20/12:00am 11.9 12.0 11.4 97 0.3 N 2 6 1 3 1015.7 1015.7 0.2
 
Date/Time
EST
Temp
°C
App
Temp
°C
Dew
Point
Rel
Hum
%
Delta-T
°C
Wind Press
QNH
hPa
Press
MSL
hPa
Rain
since 9 am
mm
Dir
 
Spd
km/h
Gust
km/h
Spd
kts
Gust
kts
19/11:30pm 13.1 14.0 12.8 98 0.2 CALM 0 0 0 0 1016.2 1016.2 0.2
19/11:00pm 13.1 13.9 12.5 96 0.3 CALM 0 0 0 0 1016.5 1016.5 0.2

Other Formats:

Comma delimited format used in spreadsheet applications
http://www.bom.gov.au/fwo/IDN60801/IDN60801.95771.axf

JavaScript Object Notation format (JSON) in row-major order
http://www.bom.gov.au/fwo/IDN60801/IDN60801.95771.json